EVLA/LPX METAR and TAF weather

Enter ICAO airport designator
Station Type Date Time Source
EVLA METAR 2018/07/19 07:20 UTC NOAA

EVLA 190720Z AUTO 00000KT 9999 NCD 28/16 Q1009


Station Type Date Time Source
EVLA Decoded METAR 2018/07/19 07:20 UTC NOAA

Liepaja International Airport, Latvia (EVLA) 56-31N 021-05E
Jul 19, 2018 - 03:20 AM EDT / 2018.07.19 0720 UTC
Wind: Calm:0
Visibility: greater than 7 mile(s):0
Temperature: 82 F (28 C)
Dew Point: 60 F (16 C)
Relative Humidity: 48%
Pressure (altimeter): 29.80 in. Hg (1009 hPa)
ob: EVLA 190720Z AUTO 00000KT 9999 NCD 28/16 Q1009
cycle: 7

Station Type Date Time Source
EVLA TAF 2018/07/19 06:06 UTC NOAA

TAF TAF EVLA 190503Z 1906/2006 02007KT CAVOK
TEMPO 1910/1915 SCT030CB
BECMG 1918/1920 VRB02KT


Example: see airport list